Time;durP1;ratioP1;P1;durP2;ratioP2;P2;SDS_P1;SDS_P2;PMS_P1;PMS_P2;Temp;Humidity;BMP_temperature;BMP_pressure;BME280_temperature;BME280_humidity;BME280_pressure;Samples;Min_cycle;Max_cycle;Signal;HPM_P1;HPM_P2
2023/07/25 00:01:28;;;;;;;3.50;3.00;;;;;;;20.86;60.03;97735.28;7008439;28;20255;-85
2023/07/25 00:04:50;;;;;;;4.40;3.10;;;;;;;21.79;58.31;97773.28;6989701;28;20225;-84
2023/07/25 00:08:11;;;;;;;4.13;3.10;;;;;;;21.94;57.89;97772.19;6986552;28;20195;-83
2023/07/25 00:11:33;;;;;;;4.33;3.37;;;;;;;21.37;58.33;97709.53;6988046;28;20360;-83
2023/07/25 00:14:56;;;;;;;4.23;3.43;;;;;;;21.16;59.69;97756.78;6980113;28;20230;-83
2023/07/25 00:18:17;;;;;;;3.23;2.93;;;;;;;21.72;58.20;97770.09;7003760;28;20295;-83
2023/07/25 00:21:39;;;;;;;4.40;3.47;;;;;;;21.65;58.26;97760.63;7012331;28;20318;-83
2023/07/25 00:25:00;;;;;;;4.83;3.60;;;;;;;21.74;57.99;97756.09;7008709;28;20347;-83
2023/07/25 00:28:22;;;;;;;6.50;3.40;;;;;;;21.52;58.93;97755.88;7008567;28;20273;-84
2023/07/25 00:31:45;;;;;;;3.50;3.20;;;;;;;21.57;58.57;97750.31;7008820;28;20236;-83
2023/07/25 00:35:07;;;;;;;4.00;3.30;;;;;;;21.49;58.93;97743.59;7001927;28;20680;-83
2023/07/25 00:38:29;;;;;;;3.70;3.40;;;;;;;21.90;57.79;97733.53;6979614;28;20202;-83
2023/07/25 00:41:50;;;;;;;4.30;3.90;;;;;;;21.82;57.95;97734.25;6981712;28;20841;-83
2023/07/25 00:45:12;;;;;;;3.50;3.20;;;;;;;21.43;59.38;97733.03;6982168;28;20306;-83
2023/07/25 00:48:35;;;;;;;5.43;3.63;;;;;;;21.69;58.25;97724.06;6980891;28;20806;-83
2023/07/25 00:51:56;;;;;;;7.70;3.50;;;;;;;21.28;59.24;97725.88;6980924;28;20198;-84
2023/07/25 00:55:18;;;;;;;3.93;3.60;;;;;;;20.84;60.57;97746.53;6980279;28;20372;-83
2023/07/25 00:58:40;;;;;;;4.43;4.03;;;;;;;20.53;62.01;97722.59;6979503;28;20248;-83
2023/07/25 01:02:01;;;;;;;5.60;3.97;;;;;;;21.20;60.25;97732.00;6981012;28;20293;-83
2023/07/25 01:05:24;;;;;;;3.60;3.30;;;;;;;21.68;58.51;97733.44;6981273;28;20316;-84
2023/07/25 01:08:49;;;;;;;3.67;3.37;;;;;;;21.68;58.05;97727.94;6979688;28;20301;-83
2023/07/25 01:12:11;;;;;;;3.70;3.40;;;;;;;21.52;58.09;97720.22;6980901;28;20198;-84
2023/07/25 01:15:33;;;;;;;3.60;3.30;;;;;;;21.21;58.42;97730.09;6980365;28;20296;-85
2023/07/25 01:18:56;;;;;;;3.73;3.23;;;;;;;21.28;58.59;97716.81;6980249;28;20746;-83
2023/07/25 01:22:19;;;;;;;4.83;3.43;;;;;;;21.24;58.25;97719.34;6981264;28;20298;-84
2023/07/25 01:25:42;;;;;;;3.80;3.40;;;;;;;21.22;58.94;97712.53;6980287;28;20269;-84
2023/07/25 01:29:04;;;;;;;4.00;3.60;;;;;;;20.76;59.18;97651.31;6980551;28;20273;-83
2023/07/25 01:32:26;;;;;;;4.73;3.30;;;;;;;21.00;58.72;97698.66;6980764;28;20209;-83
2023/07/25 01:35:47;;;;;;;3.30;3.00;;;;;;;20.90;59.47;97714.41;6980879;28;20206;-84
2023/07/25 01:39:09;;;;;;;3.57;3.27;;;;;;;20.98;59.14;97717.31;6980641;28;20299;-84
2023/07/25 01:42:32;;;;;;;6.03;3.63;;;;;;;20.99;59.43;97705.22;6979954;28;20215;-83
2023/07/25 01:45:54;;;;;;;4.27;3.67;;;;;;;20.62;60.63;97693.44;6979745;28;20237;-84
2023/07/25 01:49:15;;;;;;;4.13;3.40;;;;;;;20.66;59.75;97653.41;6980526;28;20313;-84
2023/07/25 01:52:37;;;;;;;7.83;3.20;;;;;;;20.87;59.95;97685.66;6980133;28;20297;-84
2023/07/25 01:55:58;;;;;;;4.80;3.63;;;;;;;20.21;59.88;97596.56;6980143;28;20761;-84
2023/07/25 01:59:21;;;;;;;4.60;3.43;;;;;;;19.99;60.74;97583.44;6980557;28;20314;-84
2023/07/25 02:02:42;;;;;;;4.33;3.30;;;;;;;20.83;59.77;97668.19;6980792;28;20297;-84
2023/07/25 02:06:04;;;;;;;5.53;3.93;;;;;;;20.92;59.31;97671.13;6980510;28;20250;-83
2023/07/25 02:09:25;;;;;;;5.20;3.23;;;;;;;21.10;58.95;97678.50;6981315;28;20379;-83
2023/07/25 02:12:47;;;;;;;3.57;3.13;;;;;;;20.70;58.40;97618.84;6981278;28;20297;-83
2023/07/25 02:16:10;;;;;;;4.70;3.70;;;;;;;20.36;59.87;97653.84;6980965;28;20294;-83
2023/07/25 02:19:31;;;;;;;4.97;4.07;;;;;;;20.20;61.39;97631.34;6981191;28;20701;-84
2023/07/25 02:22:53;;;;;;;5.43;3.97;;;;;;;20.24;61.13;97642.50;6981044;28;20273;-83
2023/07/25 02:26:14;;;;;;;3.87;3.50;;;;;;;20.14;60.15;97572.31;6980795;28;20652;-84
2023/07/25 02:29:36;;;;;;;4.53;3.33;;;;;;;20.41;60.26;97629.94;6981300;28;20260;-83
2023/07/25 02:32:58;;;;;;;4.97;3.50;;;;;;;20.37;60.55;97626.19;6981094;28;20615;-83
2023/07/25 02:36:20;;;;;;;6.00;3.63;;;;;;;20.29;60.88;97612.34;6976711;28;20226;-84
2023/07/25 02:39:41;;;;;;;3.47;3.17;;;;;;;19.72;60.47;97508.59;6986948;28;20246;-84
2023/07/25 02:43:03;;;;;;;4.07;3.57;;;;;;;20.24;60.91;97599.53;6982005;28;20297;-84
2023/07/25 02:46:25;;;;;;;4.67;3.70;;;;;;;20.25;60.88;97568.31;6988543;28;20789;-84
2023/07/25 02:49:48;;;;;;;3.50;3.20;;;;;;;20.70;59.40;97591.44;6989437;28;20237;-84
2023/07/25 02:53:09;;;;;;;4.50;3.30;;;;;;;20.58;59.34;97591.09;6978507;28;20297;-83
2023/07/25 02:56:31;;;;;;;4.00;3.70;;;;;;;20.29;59.95;97593.19;6978727;28;20294;-83
2023/07/25 02:59:52;;;;;;;4.90;3.77;;;;;;;19.92;61.44;97604.06;6978753;28;20323;-84
2023/07/25 03:03:14;;;;;;;4.77;3.33;;;;;;;20.23;61.25;97600.63;6979621;28;20206;-83
2023/07/25 03:06:36;;;;;;;4.70;3.53;;;;;;;20.09;61.67;97598.91;6979371;28;20692;-84
2023/07/25 03:09:58;;;;;;;4.50;3.77;;;;;;;20.09;61.25;97552.41;6979336;28;20298;-83
2023/07/25 03:13:25;;;;;;;4.30;3.73;;;;;;;19.86;61.99;97569.69;6976500;28;20262;-84
2023/07/25 03:16:47;;;;;;;5.50;3.50;;;;;;;19.88;61.65;97560.06;6977567;28;20240;-84
2023/07/25 03:20:09;;;;;;;4.00;3.60;;;;;;;19.94;61.51;97566.28;6977113;28;20282;-83
2023/07/25 03:23:32;;;;;;;5.20;3.80;;;;;;;20.20;61.52;97584.00;6977331;28;20277;-84
2023/07/25 03:26:53;;;;;;;4.27;3.70;;;;;;;20.61;59.69;97598.69;6975533;28;20286;-83
2023/07/25 03:30:15;;;;;;;4.73;4.10;;;;;;;20.48;59.70;97616.72;6975440;28;20296;-83
2023/07/25 03:33:36;;;;;;;4.33;3.60;;;;;;;20.17;61.09;97631.91;6975841;28;20337;-83
2023/07/25 03:36:58;;;;;;;5.20;4.07;;;;;;;20.23;61.85;97649.91;6975019;28;20266;-84
2023/07/25 03:40:21;;;;;;;6.37;4.30;;;;;;;20.55;61.11;97646.44;6975383;28;20317;-85
2023/07/25 03:43:42;;;;;;;5.53;4.73;;;;;;;20.26;60.95;97578.16;6974468;28;20194;-84
2023/07/25 03:47:05;;;;;;;9.07;5.23;;;;;;;20.24;61.79;97657.03;6966265;28;20642;-85
2023/07/25 03:50:26;;;;;;;6.67;4.30;;;;;;;20.16;61.92;97616.63;6971169;28;20222;-84
2023/07/25 03:53:48;;;;;;;5.13;4.63;;;;;;;20.17;62.02;97644.81;6971542;28;20213;-84
2023/07/25 03:57:10;;;;;;;5.53;4.30;;;;;;;20.47;61.94;97658.06;6970807;28;20694;-84
2023/07/25 04:00:32;;;;;;;5.83;4.23;;;;;;;20.70;61.54;97660.72;6971375;28;20721;-90
2023/07/25 04:03:53;;;;;;;4.33;3.90;;;;;;;20.83;60.62;97662.72;6970492;28;20203;-84
2023/07/25 04:07:15;;;;;;;4.47;4.07;;;;;;;20.81;60.09;97628.53;6970945;28;20321;-85
2023/07/25 04:10:36;;;;;;;4.20;3.80;;;;;;;20.67;60.36;97651.16;6976864;28;20317;-85
2023/07/25 04:13:59;;;;;;;4.83;3.97;;;;;;;20.70;59.81;97638.00;6974653;28;20272;-84
2023/07/25 04:17:21;;;;;;;4.07;3.50;;;;;;;20.51;60.07;97602.41;6973062;28;20604;-84
2023/07/25 04:20:42;;;;;;;4.83;3.83;;;;;;;20.90;60.26;97648.66;6973638;28;20715;-83
2023/07/25 04:24:05;;;;;;;8.00;3.67;;;;;;;20.05;60.22;97556.81;6975541;28;20289;-84
2023/07/25 04:27:28;;;;;;;3.80;3.50;;;;;;;20.49;60.17;97593.69;6975501;28;20228;-89
2023/07/25 04:30:51;;;;;;;4.10;3.67;;;;;;;21.13;59.13;97651.28;6971766;28;20221;-85
2023/07/25 04:34:12;;;;;;;4.77;3.50;;;;;;;21.13;59.60;97654.03;6981133;28;20229;-85
2023/07/25 04:37:33;;;;;;;4.27;3.87;;;;;;;19.98;62.73;97657.63;6981577;28;20297;-84
2023/07/25 04:40:56;;;;;;;5.73;4.20;;;;;;;19.67;65.04;97639.91;6981916;28;20321;-84
2023/07/25 04:44:18;;;;;;;3.73;3.30;;;;;;;20.80;62.45;97657.03;6955669;28;20203;-84
2023/07/25 04:47:41;;;;;;;4.70;3.57;;;;;;;21.02;60.50;97653.38;6976469;28;20313;-84
2023/07/25 04:51:02;;;;;;;4.30;3.60;;;;;;;21.25;59.91;97643.41;6984616;28;20280;-84
2023/07/25 04:54:24;;;;;;;3.87;3.33;;;;;;;21.02;60.24;97617.75;6983319;28;20285;-86
2023/07/25 04:57:45;;;;;;;4.23;3.60;;;;;;;21.36;59.86;97634.69;6980507;28;20874;-84
2023/07/25 05:01:07;;;;;;;4.50;3.77;;;;;;;21.54;59.11;97630.25;6984579;28;20620;-85
2023/07/25 05:04:30;;;;;;;5.20;3.23;;;;;;;21.62;58.70;97618.56;6983251;28;20207;-89
2023/07/25 05:07:51;;;;;;;4.60;3.70;;;;;;;21.48;59.03;97653.41;6976323;28;20814;-87
2023/07/25 05:11:13;;;;;;;4.70;4.27;;;;;;;21.01;60.56;97620.81;6983062;28;20315;-84
2023/07/25 05:14:37;;;;;;;4.90;3.70;;;;;;;21.54;59.18;97631.03;6982196;28;20295;-85
2023/07/25 05:17:59;;;;;;;4.23;3.47;;;;;;;21.58;58.67;97648.53;6982209;28;20360;-84
2023/07/25 05:21:21;;;;;;;4.53;3.40;;;;;;;20.95;58.31;97531.56;6982460;28;20301;-84
2023/07/25 05:24:43;;;;;;;4.47;3.60;;;;;;;21.81;58.33;97647.56;6983170;28;20253;-84
2023/07/25 05:28:04;;;;;;;3.67;3.33;;;;;;;21.72;58.96;97654.06;6982167;28;20310;-86
2023/07/25 05:31:26;;;;;;;4.23;3.80;;;;;;;21.84;58.30;97651.63;6983114;28;20311;-85
2023/07/25 05:34:48;;;;;;;3.80;3.40;;;;;;;21.56;58.35;97626.09;6983454;28;20652;-84
2023/07/25 05:38:10;;;;;;;11.70;3.60;;;;;;;21.06;60.84;97650.88;6976580;28;20207;-83
2023/07/25 05:41:33;;;;;;;4.67;3.23;;;;;;;21.48;59.50;97647.91;6974859;28;20234;-85
2023/07/25 05:44:54;;;;;;;4.10;3.37;;;;;;;21.57;59.87;97659.81;6979893;28;20236;-84
2023/07/25 05:48:16;;;;;;;3.70;3.40;;;;;;;21.16;60.63;97647.94;6983612;28;20265;-84
2023/07/25 05:51:37;;;;;;;4.83;3.43;;;;;;;21.19;61.29;97612.50;6983429;28;20277;-84
2023/07/25 05:55:00;;;;;;;4.07;3.53;;;;;;;21.61;60.02;97647.91;6957178;28;20298;-83
2023/07/25 05:58:22;;;;;;;4.60;3.80;;;;;;;21.51;60.41;97636.31;6973817;28;20300;-85
2023/07/25 06:01:43;;;;;;;5.50;3.83;;;;;;;21.68;60.68;97655.78;6986708;28;20596;-84
2023/07/25 06:05:05;;;;;;;4.80;3.83;;;;;;;21.33;60.45;97623.50;6995658;28;20221;-84
2023/07/25 06:08:27;;;;;;;5.00;4.30;;;;;;;21.11;61.18;97636.25;6985041;28;20249;-84
2023/07/25 06:11:50;;;;;;;6.60;4.00;;;;;;;21.46;60.89;97663.84;6986475;28;20686;-84
2023/07/25 06:15:11;;;;;;;4.80;4.40;;;;;;;21.63;60.80;97673.13;6982340;28;20263;-84
2023/07/25 06:18:33;;;;;;;5.60;4.57;;;;;;;21.49;61.10;97663.25;6977341;28;20270;-84
2023/07/25 06:21:54;;;;;;;4.33;3.93;;;;;;;21.85;60.25;97626.63;6983638;28;20541;-85
2023/07/25 06:25:16;;;;;;;4.70;4.20;;;;;;;21.33;62.72;97636.41;6983446;28;20203;-85
2023/07/25 06:28:39;;;;;;;4.80;4.23;;;;;;;21.89;61.19;97633.13;6983401;28;20236;-85
2023/07/25 06:32:01;;;;;;;4.87;4.37;;;;;;;21.82;61.93;97642.88;6971901;28;20251;-85
2023/07/25 06:35:22;;;;;;;5.37;4.87;;;;;;;22.34;61.15;97676.09;6979980;28;20205;-84
2023/07/25 06:38:44;;;;;;;5.20;4.57;;;;;;;22.36;60.82;97649.13;6978393;28;20284;-84
2023/07/25 06:42:05;;;;;;;5.17;4.63;;;;;;;22.19;60.87;97654.44;6976978;28;20284;-83
2023/07/25 06:45:28;;;;;;;6.83;4.50;;;;;;;22.22;60.65;97620.91;6976530;28;20287;-84
2023/07/25 06:48:50;;;;;;;5.57;4.73;;;;;;;22.29;59.14;97635.00;6956933;28;20312;-84
2023/07/25 06:52:11;;;;;;;5.17;4.43;;;;;;;22.41;59.46;97643.53;6976809;28;20258;-83
2023/07/25 06:55:34;;;;;;;5.03;4.00;;;;;;;22.62;57.95;97652.16;6981991;28;20272;-84
2023/07/25 06:58:55;;;;;;;4.43;3.83;;;;;;;22.60;59.46;97649.72;6982871;28;20281;-83
2023/07/25 07:02:18;;;;;;;3.80;3.50;;;;;;;22.88;59.07;97632.00;6985292;28;20547;-83
2023/07/25 07:05:40;;;;;;;6.30;4.00;;;;;;;22.92;59.02;97621.19;6991233;28;20234;-83
2023/07/25 07:09:01;;;;;;;5.07;4.50;;;;;;;23.07;58.05;97605.13;6990836;28;20786;-84
2023/07/25 07:12:23;;;;;;;4.33;3.90;;;;;;;22.74;59.20;97625.75;6993089;28;20208;-82
2023/07/25 07:15:46;;;;;;;4.93;4.40;;;;;;;22.08;61.71;97639.28;6989529;28;20267;-83
2023/07/25 07:19:08;;;;;;;7.30;5.40;;;;;;;22.21;62.39;97637.66;6988739;28;20258;-84
2023/07/25 07:22:30;;;;;;;7.93;4.80;;;;;;;22.46;61.22;97631.63;6980985;28;20199;-85
2023/07/25 07:25:51;;;;;;;4.53;4.13;;;;;;;22.06;60.72;97553.69;6972522;28;20293;-84
2023/07/25 07:29:13;;;;;;;7.77;4.37;;;;;;;22.98;59.70;97637.25;6972770;28;20376;-84
2023/07/25 07:32:35;;;;;;;8.37;4.80;;;;;;;22.88;59.73;97621.00;6971459;28;20344;-85
2023/07/25 07:35:57;;;;;;;6.30;4.20;;;;;;;22.80;61.07;97631.94;6971491;28;20268;-84
2023/07/25 07:39:19;;;;;;;6.53;4.80;;;;;;;22.68;61.04;97631.69;6972773;28;20691;-84
2023/07/25 07:42:40;;;;;;;5.73;4.60;;;;;;;22.57;61.48;97624.78;6972587;28;20361;-84
2023/07/25 07:46:02;;;;;;;4.30;3.90;;;;;;;22.67;60.86;97621.81;6971757;28;20745;-85
2023/07/25 07:49:23;;;;;;;5.03;4.10;;;;;;;22.99;59.99;97624.31;6972034;28;20318;-84
2023/07/25 07:52:46;;;;;;;5.63;3.97;;;;;;;23.46;58.78;97607.97;6972262;28;20289;-84
2023/07/25 07:56:08;;;;;;;4.57;4.07;;;;;;;23.59;58.66;97615.31;6971056;28;20621;-85
2023/07/25 07:59:30;;;;;;;5.43;4.27;;;;;;;23.44;59.38;97614.91;6972245;28;20315;-85
2023/07/25 08:02:52;;;;;;;5.60;4.00;;;;;;;23.42;59.06;97606.97;6972398;28;20291;-84
2023/07/25 08:06:13;;;;;;;4.90;4.13;;;;;;;23.58;58.82;97608.19;6972057;28;20202;-84
2023/07/25 08:09:36;;;;;;;4.07;3.67;;;;;;;23.66;58.72;97604.66;6977175;28;20826;-84
2023/07/25 08:12:57;;;;;;;7.13;3.90;;;;;;;23.83;57.87;97612.97;6978136;28;20242;-84
2023/07/25 08:16:19;;;;;;;5.37;3.70;;;;;;;24.19;57.56;97610.03;6977733;28;20293;-85
2023/07/25 08:19:40;;;;;;;5.13;3.30;;;;;;;24.65;56.02;97602.03;6977783;28;20219;-85
2023/07/25 08:23:02;;;;;;;4.23;3.43;;;;;;;24.66;55.79;97603.63;6977632;28;20685;-85
2023/07/25 08:26:25;;;;;;;4.00;3.43;;;;;;;24.20;55.29;97600.63;6976505;28;20264;-86
2023/07/25 08:29:46;;;;;;;4.03;3.63;;;;;;;24.41;56.77;97591.44;6976998;28;20258;-85
2023/07/25 08:33:08;;;;;;;3.90;3.03;;;;;;;25.45;53.84;97588.28;6977141;28;20203;-86
2023/07/25 08:36:29;;;;;;;3.70;2.70;;;;;;;26.04;53.25;97579.75;6978038;28;20361;-86
2023/07/25 08:39:51;;;;;;;3.53;2.60;;;;;;;26.82;50.51;97586.34;6979250;28;20223;-83
2023/07/25 08:43:14;;;;;;;3.37;3.00;;;;;;;27.22;49.94;97579.97;6977165;28;20303;-83
2023/07/25 08:46:36;;;;;;;2.80;2.60;;;;;;;26.91;48.73;97587.91;6978565;28;20303;-83
2023/07/25 08:49:58;;;;;;;4.73;2.77;;;;;;;25.44;48.88;97567.34;6969111;28;20362;-90
2023/07/25 08:53:21;;;;;;;3.83;3.00;;;;;;;24.76;52.80;97589.50;6975689;28;20195;-89
2023/07/25 08:56:43;;;;;;;3.87;3.00;;;;;;;24.96;53.57;97558.53;6974770;28;20816;-83
2023/07/25 09:00:08;;;;;;;5.80;5.17;;;;;;;25.84;53.22;97596.25;6978110;28;20249;-84
2023/07/25 09:03:29;;;;;;;3.07;2.70;;;;;;;24.87;52.35;97594.38;6976416;28;20206;-89
2023/07/25 09:06:51;;;;;;;3.43;3.10;;;;;;;25.35;53.94;97603.25;6976605;28;20293;-83
2023/07/25 09:10:12;;;;;;;4.30;3.23;;;;;;;24.99;55.36;97605.56;6976973;28;20369;-83
2023/07/25 09:13:34;;;;;;;4.67;3.00;;;;;;;24.96;55.57;97597.91;6978187;28;20232;-83
2023/07/25 09:16:57;;;;;;;6.80;3.27;;;;;;;26.18;51.86;97591.34;6974768;28;20295;-83
2023/07/25 09:20:19;;;;;;;4.70;2.93;;;;;;;27.11;50.05;97580.69;6949002;28;20227;-83
2023/07/25 09:23:41;;;;;;;3.53;3.20;;;;;;;27.14;51.02;97577.25;6948902;28;20284;-83
2023/07/25 09:27:03;;;;;;;3.20;2.77;;;;;;;26.86;49.70;97579.81;6949989;28;20221;-82
2023/07/25 09:30:27;;;;;;;6.43;3.47;;;;;;;26.70;51.57;97591.81;6955957;28;20679;-83
2023/07/25 09:33:52;;;;;;;3.20;2.90;;;;;;;26.61;50.58;97586.34;6956151;28;20230;-83
2023/07/25 09:37:16;;;;;;;4.73;3.27;;;;;;;26.56;50.61;97586.56;6953949;28;20256;-83
2023/07/25 09:40:38;;;;;;;3.03;2.80;;;;;;;25.99;53.06;97577.19;6956403;28;20244;-83
2023/07/25 09:44:01;;;;;;;3.10;2.83;;;;;;;26.00;53.45;97564.97;6962338;28;20237;-83
2023/07/25 09:47:23;;;;;;;2.73;2.43;;;;;;;26.71;49.65;97563.03;6979398;28;20210;-82
2023/07/25 09:50:46;;;;;;;2.60;2.40;;;;;;;26.24;48.17;97554.09;6976349;28;20226;-83
2023/07/25 09:54:08;;;;;;;2.50;2.30;;;;;;;26.95;47.21;97577.75;6977384;28;20216;-83
2023/07/25 09:57:30;;;;;;;2.43;2.23;;;;;;;27.01;48.34;97547.94;6968697;28;20241;-83
2023/07/25 10:00:51;;;;;;;2.40;2.20;;;;;;;26.41;48.33;97570.56;6945500;28;20310;-83
2023/07/25 10:04:14;;;;;;;2.33;2.10;;;;;;;26.02;46.73;97562.69;6947373;28;20235;-83
2023/07/25 10:07:38;;;;;;;3.27;2.13;;;;;;;25.97;45.76;97551.84;6949341;28;20341;-83
2023/07/25 10:10:59;;;;;;;3.70;2.47;;;;;;;26.72;46.75;97573.72;6948832;28;20269;-82
2023/07/25 10:14:21;;;;;;;5.77;2.20;;;;;;;26.52;46.20;97585.59;6948488;28;20302;-82
2023/07/25 10:17:42;;;;;;;2.33;1.80;;;;;;;26.15;45.24;97585.69;6959778;28;20261;-82
2023/07/25 10:21:04;;;;;;;2.50;2.10;;;;;;;25.85;45.50;97584.03;6961944;28;20281;-82
2023/07/25 10:24:34;;;;;;;2.67;2.20;;;;;;;26.16;44.88;97573.50;6967379;28;20203;-82
2023/07/25 10:27:59;;;;;;;4.17;2.20;;;;;;;26.63;44.97;97570.25;6969346;28;20223;-82
2023/07/25 10:31:22;;;;;;;3.73;2.37;;;;;;;27.21;42.66;97570.06;6987852;28;20230;-82
2023/07/25 10:34:46;;;;;;;2.53;1.83;;;;;;;27.06;43.13;97584.47;6987157;28;20281;-82
2023/07/25 10:38:08;;;;;;;3.63;2.07;;;;;;;27.14;41.99;97566.19;6980996;28;20214;-83
2023/07/25 10:41:31;;;;;;;2.10;1.90;;;;;;;26.37;43.15;97543.94;6980405;28;20242;-83
2023/07/25 10:44:52;;;;;;;2.30;2.10;;;;;;;26.56;43.42;97556.16;6982582;28;20237;-82
2023/07/25 10:48:30;;;;;;;2.87;1.80;;;;;;;27.64;42.17;97567.59;6982187;28;20377;-82
2023/07/25 10:51:53;;;;;;;2.10;1.70;;;;;;;26.69;42.64;97571.66;6982269;28;20720;-82
2023/07/25 10:55:15;;;;;;;1.63;1.53;;;;;;;27.72;40.81;97563.09;6976338;28;20239;-82
2023/07/25 10:58:38;;;;;;;1.80;1.70;;;;;;;26.39;42.43;97563.75;6949543;28;20264;-83
2023/07/25 11:02:00;;;;;;;1.53;1.43;;;;;;;26.23;43.57;97511.03;6946122;28;20208;-83
2023/07/25 11:05:23;;;;;;;2.00;1.63;;;;;;;25.97;44.15;97554.63;6945700;28;20266;-82
2023/07/25 11:08:44;;;;;;;1.77;1.67;;;;;;;25.98;45.42;97561.75;6961581;28;20234;-82
2023/07/25 11:12:07;;;;;;;2.80;1.90;;;;;;;25.93;46.75;97539.84;6962836;28;20213;-83
2023/07/25 11:15:30;;;;;;;2.57;2.10;;;;;;;25.73;48.59;97546.06;6970678;28;20203;-82
2023/07/25 11:18:52;;;;;;;2.80;1.70;;;;;;;25.27;48.85;97490.13;6974341;28;20292;-83
2023/07/25 11:22:14;;;;;;;2.07;1.80;;;;;;;25.41;48.99;97537.63;6975349;28;20216;-82
2023/07/25 11:25:35;;;;;;;1.73;1.50;;;;;;;25.49;49.69;97565.19;6972866;28;20304;-83
2023/07/25 11:28:58;;;;;;;2.57;1.87;;;;;;;25.90;48.90;97542.47;6971381;28;20221;-82
2023/07/25 11:32:21;;;;;;;2.10;1.90;;;;;;;26.13;47.07;97478.25;6972963;28;20198;-83
2023/07/25 11:35:42;;;;;;;2.07;1.80;;;;;;;27.00;46.15;97551.81;6971855;28;20253;-82
2023/07/25 11:39:04;;;;;;;3.37;2.20;;;;;;;27.48;44.37;97571.38;6972671;28;20714;-82
2023/07/25 11:42:26;;;;;;;3.73;2.10;;;;;;;26.98;43.05;97568.78;6970076;28;20210;-82
2023/07/25 11:45:48;;;;;;;2.57;1.80;;;;;;;27.31;41.18;97568.81;6972776;28;20337;-83
2023/07/25 11:49:13;;;;;;;1.50;1.40;;;;;;;28.00;39.86;97539.91;6970075;28;20250;-83
2023/07/25 11:52:35;;;;;;;2.40;1.80;;;;;;;27.85;39.45;97548.91;6966949;28;20279;-82
2023/07/25 11:55:56;;;;;;;2.70;1.80;;;;;;;27.86;38.93;97542.22;6976256;28;20686;-81
2023/07/25 11:59:18;;;;;;;1.57;1.47;;;;;;;27.35;39.38;97550.34;6975163;28;20305;-81
2023/07/25 12:02:40;;;;;;;1.97;1.77;;;;;;;26.77;41.25;97545.88;6976105;28;20297;-82
2023/07/25 12:06:03;;;;;;;2.40;1.27;;;;;;;26.83;40.40;97540.97;6970366;28;20254;-81
2023/07/25 12:09:28;;;;;;;1.67;1.57;;;;;;;26.19;40.87;97418.88;6973422;28;20232;-82
2023/07/25 12:12:49;;;;;;;1.90;1.70;;;;;;;26.53;41.68;97558.75;6974190;28;20238;-83
2023/07/25 12:16:25;;;;;;;3.13;1.53;;;;;;;26.86;41.73;97551.31;6972652;28;20746;-84
2023/07/25 12:19:52;;;;;;;2.77;1.20;;;;;;;24.86;42.33;97573.47;6974011;28;20237;-82
2023/07/25 12:23:15;;;;;;;2.87;1.50;;;;;;;24.04;44.66;97596.72;6975302;28;20753;-82
2023/07/25 12:26:44;;;;;;;1.30;1.20;;;;;;;23.48;44.52;97553.44;6974397;28;20210;-81
2023/07/25 12:30:07;;;;;;;1.47;1.30;;;;;;;23.49;45.07;97592.78;6974925;28;20243;-82
2023/07/25 12:33:29;;;;;;;2.47;1.30;;;;;;;22.84;47.52;97589.75;6973713;28;20380;-82
2023/07/25 12:36:52;;;;;;;1.30;1.20;;;;;;;23.50;47.49;97621.91;6974821;28;20236;-83
2023/07/25 12:40:15;;;;;;;2.03;1.70;;;;;;;22.71;53.01;97637.38;6956440;28;20223;-82
2023/07/25 12:43:37;;;;;;;5.80;1.87;;;;;;;22.50;57.96;97646.38;6980246;28;20261;-82
2023/07/25 12:46:59;;;;;;;5.03;1.90;;;;;;;21.69;61.05;97630.78;6976015;28;20285;-83
2023/07/25 12:50:20;;;;;;;4.73;2.57;;;;;;;22.41;60.88;97618.81;6971349;28;20244;-84
2023/07/25 12:53:44;;;;;;;4.80;2.73;;;;;;;23.05;59.28;97645.06;6970352;28;20298;-85
2023/07/25 12:57:07;;;;;;;2.20;1.80;;;;;;;23.92;60.36;97633.13;6976634;28;20688;-83
2023/07/25 13:00:29;;;;;;;8.23;1.87;;;;;;;23.89;57.58;97636.50;6977654;28;20298;-83
2023/07/25 13:03:53;;;;;;;2.40;2.20;;;;;;;23.77;58.09;97649.25;6976718;28;20221;-83
2023/07/25 13:07:14;;;;;;;1.67;1.57;;;;;;;23.56;57.01;97628.91;6976863;28;20769;-83
2023/07/25 13:10:36;;;;;;;1.70;1.60;;;;;;;23.65;59.64;97660.03;6977962;28;20291;-84
2023/07/25 13:13:59;;;;;;;2.37;1.90;;;;;;;23.78;56.26;97631.59;7000619;28;20295;-84
2023/07/25 13:17:20;;;;;;;1.30;1.20;;;;;;;22.71;58.67;97644.81;7005088;28;20208;-83
2023/07/25 13:20:42;;;;;;;2.23;1.50;;;;;;;23.57;56.07;97649.78;7005509;28;20303;-83
2023/07/25 13:24:04;;;;;;;1.30;1.20;;;;;;;23.76;55.51;97675.94;7005672;28;20212;-83
2023/07/25 13:27:26;;;;;;;1.10;1.10;;;;;;;23.37;54.63;97675.09;7004927;28;20588;-84
2023/07/25 13:30:49;;;;;;;1.80;1.13;;;;;;;23.74;53.48;97685.66;6999700;28;20316;-84
2023/07/25 13:34:10;;;;;;;3.57;1.33;;;;;;;22.88;55.36;97681.47;6982248;28;20313;-83
2023/07/25 13:37:32;;;;;;;1.23;1.13;;;;;;;23.43;52.89;97704.09;6963568;28;20289;-83
2023/07/25 13:40:53;;;;;;;1.70;1.53;;;;;;;22.81;54.19;97691.28;6947609;28;20260;-83
2023/07/25 13:44:15;;;;;;;3.07;1.30;;;;;;;22.80;53.85;97708.88;6968523;28;20666;-84
2023/07/25 13:47:38;;;;;;;1.23;1.13;;;;;;;22.82;54.13;97717.63;6978026;28;20207;-84
2023/07/25 13:50:59;;;;;;;1.40;1.30;;;;;;;22.36;55.52;97722.50;6976763;28;20312;-84
2023/07/25 13:54:23;;;;;;;1.50;1.40;;;;;;;22.51;55.26;97714.75;6978072;28;20220;-84
2023/07/25 13:57:44;;;;;;;1.20;1.10;;;;;;;22.78;54.11;97698.19;6968578;28;20652;-83
2023/07/25 14:01:06;;;;;;;1.63;1.53;;;;;;;22.66;55.87;97700.69;6947853;28;20313;-84
2023/07/25 14:04:29;;;;;;;1.60;1.50;;;;;;;22.88;56.78;97713.63;6947074;28;20216;-84
2023/07/25 14:07:51;;;;;;;2.20;1.50;;;;;;;22.95;57.39;97719.56;6948919;28;20214;-85
2023/07/25 14:11:13;;;;;;;1.57;1.40;;;;;;;22.15;57.10;97722.09;6951056;28;20741;-83
2023/07/25 14:14:35;;;;;;;1.63;1.53;;;;;;;22.43;56.28;97696.25;6954091;28;20249;-84
2023/07/25 14:17:57;;;;;;;1.67;1.57;;;;;;;22.91;55.47;97722.09;6950985;28;20312;-83
2023/07/25 14:21:20;;;;;;;2.00;1.60;;;;;;;22.58;56.56;97715.16;6948437;28;20922;-84
2023/07/25 14:24:41;;;;;;;1.77;1.60;;;;;;;22.52;55.83;97718.31;6949086;28;20264;-83
2023/07/25 14:28:03;;;;;;;2.73;1.60;;;;;;;22.83;55.67;97728.31;6950417;28;20348;-83
2023/07/25 14:31:25;;;;;;;1.70;1.60;;;;;;;23.27;54.14;97730.34;6975496;28;20729;-84
2023/07/25 14:34:46;;;;;;;2.00;1.33;;;;;;;23.24;52.95;97720.78;6976558;28;20312;-84
2023/07/25 14:38:09;;;;;;;1.40;1.30;;;;;;;23.01;54.81;97716.34;6975100;28;20711;-84
2023/07/25 14:41:32;;;;;;;1.53;1.50;;;;;;;23.08;53.67;97702.19;6974336;28;20257;-84
2023/07/25 14:44:53;;;;;;;1.67;1.50;;;;;;;22.64;54.05;97653.47;6974775;28;20239;-84
2023/07/25 14:48:15;;;;;;;1.60;1.50;;;;;;;23.55;52.52;97726.34;6976595;28;20217;-84
2023/07/25 14:51:37;;;;;;;1.57;1.47;;;;;;;23.43;52.37;97737.09;6976229;28;20329;-84
2023/07/25 14:54:59;;;;;;;2.13;1.80;;;;;;;23.00;53.92;97733.16;6977971;28;20255;-84
2023/07/25 14:58:21;;;;;;;2.27;1.60;;;;;;;23.68;52.44;97726.25;6947752;28;20252;-84
2023/07/25 15:01:43;;;;;;;3.23;1.60;;;;;;;23.69;52.22;97724.31;6966439;28;20709;-84
2023/07/25 15:05:05;;;;;;;1.87;1.67;;;;;;;23.79;50.28;97749.63;6959227;28;20272;-82
2023/07/25 15:08:26;;;;;;;1.70;1.60;;;;;;;23.94;49.40;97716.22;6972607;28;20211;-83
2023/07/25 15:11:49;;;;;;;2.53;1.70;;;;;;;23.56;51.71;97723.28;6974634;28;20317;-83
2023/07/25 15:15:11;;;;;;;1.73;1.63;;;;;;;23.63;50.39;97729.16;6979106;28;20632;-83
2023/07/25 15:18:34;;;;;;;1.90;1.60;;;;;;;24.68;48.22;97719.91;6975305;28;20289;-83
2023/07/25 15:21:56;;;;;;;1.80;1.70;;;;;;;24.17;47.86;97727.97;6973002;28;20199;-83
2023/07/25 15:25:17;;;;;;;2.93;1.70;;;;;;;24.32;47.01;97731.13;6982488;28;20215;-83
2023/07/25 15:28:40;;;;;;;2.20;1.97;;;;;;;24.12;47.78;97728.94;6980608;28;20232;-83
2023/07/25 15:32:02;;;;;;;2.30;2.07;;;;;;;23.92;48.61;97710.22;6980193;28;20313;-83
2023/07/25 15:35:26;;;;;;;2.87;2.20;;;;;;;23.61;49.47;97734.13;6978683;28;20290;-83
2023/07/25 15:38:47;;;;;;;2.30;2.10;;;;;;;23.44;49.47;97730.47;6958932;28;20207;-82
2023/07/25 15:42:09;;;;;;;3.43;2.13;;;;;;;23.70;49.13;97723.19;6947775;28;20699;-83
2023/07/25 15:45:34;;;;;;;2.20;2.00;;;;;;;23.79;49.28;97740.56;6977161;28;20295;-83
2023/07/25 15:48:55;;;;;;;3.10;2.20;;;;;;;23.53;50.62;97745.09;6979159;28;20223;-83
2023/07/25 15:52:17;;;;;;;2.30;2.10;;;;;;;23.84;49.81;97741.22;6979377;28;20217;-83